Time;durP1;ratioP1;P1;durP2;ratioP2;P2;SDS_P1;SDS_P2;PMS_P1;PMS_P2;Temp;Humidity;BMP_temperature;BMP_pressure;BME280_temperature;BME280_humidity;BME280_pressure;Samples;Min_cycle;Max_cycle;Signal;HPM_P1;HPM_P2
2022/05/05 00:02:20;;;;;;;4.75;2.38;;;;;;;11.53;60.96;102080.28;4974235;28;123172;-35
2022/05/05 00:04:46;;;;;;;6.03;2.15;;;;;;;11.49;60.85;102076.84;4974275;28;114890;-35
2022/05/05 00:07:11;;;;;;;4.18;2.28;;;;;;;11.55;60.87;102083.81;4973670;28;96808;-35
2022/05/05 00:09:37;;;;;;;3.70;2.15;;;;;;;11.50;61.65;102072.28;4974464;28;99503;-35
2022/05/05 00:14:46;;;;;;;4.97;1.90;;;;;;;11.47;61.60;102085.03;4974736;28;96769;-35
2022/05/05 00:17:12;;;;;;;7.47;2.35;;;;;;;11.50;62.08;102088.56;4974297;28;121813;-35
2022/05/05 00:19:40;;;;;;;4.95;2.25;;;;;;;11.56;62.16;102102.72;4974203;28;119855;-35
2022/05/05 00:22:06;;;;;;;6.90;2.25;;;;;;;11.53;61.58;102088.41;4974105;28;99605;-35
2022/05/05 00:24:32;;;;;;;5.00;2.22;;;;;;;11.50;62.00;102072.28;4974143;28;96682;-35
2022/05/05 00:26:58;;;;;;;4.10;2.15;;;;;;;11.50;61.36;102070.44;4956994;28;96657;-35
2022/05/05 00:29:23;;;;;;;6.40;2.15;;;;;;;11.53;61.94;102074.84;4974244;28;98867;-35
2022/05/05 00:31:49;;;;;;;3.78;2.03;;;;;;;11.55;60.98;102084.69;4973489;28;126624;-35
2022/05/05 00:34:15;;;;;;;4.78;2.17;;;;;;;11.56;62.95;102088.25;4973075;28;96826;-35
2022/05/05 00:36:41;;;;;;;5.00;2.40;;;;;;;11.48;60.85;102081.34;4972894;28;96812;-35
2022/05/05 00:39:07;;;;;;;3.67;1.95;;;;;;;11.61;61.06;102081.69;4974290;28;97546;-35
2022/05/05 00:41:35;;;;;;;6.80;2.10;;;;;;;11.56;60.95;102069.25;4972790;28;100893;-35
2022/05/05 00:44:03;;;;;;;3.35;1.95;;;;;;;11.60;61.05;102079.03;4974188;28;96715;-35
2022/05/05 00:46:28;;;;;;;6.50;2.05;;;;;;;11.62;61.14;102072.59;4972989;28;96857;-35
2022/05/05 00:48:54;;;;;;;3.65;1.95;;;;;;;11.62;60.68;102072.59;4973486;28;99244;-35
2022/05/05 00:51:20;;;;;;;3.95;2.35;;;;;;;11.68;61.83;102083.16;4972621;28;100752;-35
2022/05/05 00:53:46;;;;;;;3.50;1.92;;;;;;;11.66;61.77;102081.47;4974249;28;96437;-35
2022/05/05 00:56:14;;;;;;;4.38;2.75;;;;;;;11.65;61.23;102077.84;4973894;28;97886;-35
2022/05/05 00:58:42;;;;;;;5.97;2.72;;;;;;;11.62;61.50;102074.41;4972439;28;101414;-35
2022/05/05 01:01:08;;;;;;;4.57;2.38;;;;;;;11.61;61.31;102080.81;4972561;28;101067;-35
2022/05/05 01:03:35;;;;;;;4.57;2.03;;;;;;;11.66;61.35;102078.78;4972753;28;96503;-35
2022/05/05 01:06:02;;;;;;;4.90;2.30;;;;;;;11.58;61.56;102075.50;4972932;28;96793;-35
2022/05/05 01:08:27;;;;;;;5.07;2.13;;;;;;;11.63;61.98;102085.22;4972194;28;99468;-35
2022/05/05 01:10:52;;;;;;;5.13;2.40;;;;;;;11.64;61.37;102078.81;4973806;28;97453;-35
2022/05/05 01:13:18;;;;;;;6.50;1.95;;;;;;;11.63;61.74;102076.16;4972662;28;101833;-34
2022/05/05 01:15:43;;;;;;;7.07;1.88;;;;;;;11.56;62.47;102069.25;4973771;28;98800;-35
2022/05/05 01:18:09;;;;;;;5.68;2.60;;;;;;;11.59;62.87;102080.88;4973478;28;98863;-35
2022/05/05 01:20:46;;;;;;;4.20;1.95;;;;;;;11.56;62.91;102082.84;4973626;28;97242;-35
2022/05/05 01:23:16;;;;;;;4.90;2.28;;;;;;;11.52;62.47;102078.53;4972354;28;96654;-35
2022/05/05 01:28:26;;;;;;;4.55;2.30;;;;;;;11.40;61.67;102069.97;4973408;28;96975;-35
2022/05/05 01:30:51;;;;;;;8.18;2.42;;;;;;;11.44;62.02;102081.56;4973737;28;97810;-35
2022/05/05 01:33:22;;;;;;;3.47;1.90;;;;;;;11.37;62.16;102063.78;4973730;28;96452;-35
2022/05/05 01:35:54;;;;;;;8.75;2.28;;;;;;;11.39;62.65;102079.09;4972210;28;96802;-34
2022/05/05 01:38:23;;;;;;;4.28;2.38;;;;;;;11.27;62.18;102060.63;4973124;28;97996;-35
2022/05/05 01:40:48;;;;;;;4.45;2.20;;;;;;;11.27;62.65;102066.03;4971911;28;100994;-35
2022/05/05 01:43:15;;;;;;;4.53;1.90;;;;;;;11.31;62.90;102078.53;4973282;28;96714;-35
2022/05/05 01:45:41;;;;;;;5.25;1.83;;;;;;;11.16;63.01;102057.53;4971986;28;96810;-35
2022/05/05 01:48:07;;;;;;;5.05;2.10;;;;;;;11.18;62.91;102063.78;4973252;28;97290;-35
2022/05/05 01:50:32;;;;;;;5.28;2.33;;;;;;;11.23;63.49;102075.28;4971579;28;101635;-35
2022/05/05 01:52:59;;;;;;;7.63;2.40;;;;;;;11.17;63.16;102064.72;4972204;28;96558;-35
2022/05/05 01:55:25;;;;;;;4.10;2.20;;;;;;;11.18;62.88;102077.34;4972008;28;96890;-35
2022/05/05 01:57:51;;;;;;;3.85;1.83;;;;;;;11.13;62.88;102063.06;4971312;28;100791;-35
2022/05/05 02:00:17;;;;;;;8.30;2.70;;;;;;;11.11;62.89;102071.28;4971631;28;100887;-35
2022/05/05 02:02:46;;;;;;;5.07;2.72;;;;;;;11.10;63.93;102077.66;4971225;28;96781;-35
2022/05/05 02:05:13;;;;;;;6.38;2.70;;;;;;;11.10;63.63;102071.34;4971686;28;96881;-35
2022/05/05 02:07:39;;;;;;;5.45;2.55;;;;;;;11.06;63.72;102065.19;4971344;28;100868;-35
2022/05/05 02:10:06;;;;;;;4.57;2.28;;;;;;;11.03;64.49;102071.59;4971250;28;101171;-35
2022/05/05 02:12:33;;;;;;;4.53;2.17;;;;;;;10.99;63.90;102061.00;4971066;28;96727;-35
2022/05/05 02:14:58;;;;;;;5.00;2.60;;;;;;;10.96;64.74;102058.41;4971350;28;96818;-35
2022/05/05 02:17:24;;;;;;;4.25;2.30;;;;;;;10.94;63.96;102066.63;4971946;28;126462;-35
2022/05/05 02:19:49;;;;;;;4.07;2.15;;;;;;;10.93;64.96;102072.09;4973165;28;97451;-35
2022/05/05 02:22:15;;;;;;;5.78;2.53;;;;;;;10.94;64.33;102079.25;4972981;28;96634;-35
2022/05/05 02:24:40;;;;;;;4.05;2.53;;;;;;;10.87;64.40;102070.53;4973026;28;96842;-35
2022/05/05 02:27:07;;;;;;;3.45;2.03;;;;;;;10.90;64.86;102078.53;4972082;28;97428;-34
2022/05/05 02:29:33;;;;;;;11.18;2.78;;;;;;;10.79;65.56;102070.84;4971025;28;100952;-35
2022/05/05 02:31:58;;;;;;;3.10;1.75;;;;;;;10.80;64.98;102074.47;4972867;28;96671;-35
2022/05/05 02:34:24;;;;;;;3.75;2.03;;;;;;;10.84;65.20;102089.63;4971931;28;121464;-35
2022/05/05 02:39:33;;;;;;;5.10;2.13;;;;;;;10.73;64.54;102075.66;4972553;28;96859;-35
2022/05/05 02:41:58;;;;;;;9.70;2.60;;;;;;;10.77;65.24;102086.31;4972398;28;96513;-35
2022/05/05 02:44:25;;;;;;;5.90;1.98;;;;;;;10.65;65.17;102072.38;4972441;28;107694;-35
2022/05/05 02:46:51;;;;;;;3.47;1.77;;;;;;;10.69;65.19;102074.03;4954838;28;100882;-35
2022/05/05 02:49:16;;;;;;;4.43;2.25;;;;;;;10.68;64.98;102077.66;4971380;28;126256;-34
2022/05/05 02:51:41;;;;;;;4.28;2.10;;;;;;;10.73;65.08;102086.50;4971865;28;96684;-35
2022/05/05 02:56:50;;;;;;;4.45;1.77;;;;;;;10.72;65.63;102084.72;4972397;28;97103;-35
2022/05/05 02:59:16;;;;;;;4.18;1.80;;;;;;;10.70;65.66;102075.78;4971652;28;120008;-35
2022/05/05 03:01:41;;;;;;;4.07;2.40;;;;;;;10.67;64.71;102067.78;4972429;28;96514;-35
2022/05/05 03:04:06;;;;;;;7.32;3.35;;;;;;;10.73;65.67;102084.69;4971561;28;114533;-35
2022/05/05 03:06:32;;;;;;;5.05;2.15;;;;;;;10.69;65.51;102072.19;4971691;28;99609;-35
2022/05/05 03:08:57;;;;;;;5.28;2.42;;;;;;;10.76;65.77;102080.94;4971779;28;103805;-35
2022/05/05 03:11:22;;;;;;;3.83;2.22;;;;;;;10.76;65.45;102086.38;4971107;28;122298;-35
2022/05/05 03:13:47;;;;;;;4.75;2.30;;;;;;;10.65;65.19;102067.84;4970770;28;120163;-34
2022/05/05 03:16:13;;;;;;;8.40;2.25;;;;;;;10.69;65.22;102074.91;4971084;28;118376;-35
2022/05/05 03:18:41;;;;;;;5.05;2.20;;;;;;;10.75;64.75;102082.78;4972026;28;99303;-35
2022/05/05 03:21:07;;;;;;;3.95;2.35;;;;;;;10.79;65.28;102086.22;4970666;28;96531;-35
2022/05/05 03:23:32;;;;;;;4.97;2.15;;;;;;;10.80;65.20;102086.19;4970626;28;96996;-35
2022/05/05 03:25:58;;;;;;;5.25;2.80;;;;;;;10.86;65.29;102093.16;4971892;28;99275;-35
2022/05/05 03:28:23;;;;;;;5.75;2.25;;;;;;;10.89;64.81;102092.13;4971672;28;99231;-35
2022/05/05 03:30:49;;;;;;;6.82;2.10;;;;;;;10.88;64.95;102093.97;4971278;28;118225;-35
2022/05/05 03:33:14;;;;;;;7.55;2.30;;;;;;;10.87;64.68;102094.94;4972361;28;96865;-35
2022/05/05 03:35:39;;;;;;;3.92;2.00;;;;;;;10.87;65.02;102097.66;4971941;28;97386;-35
2022/05/05 03:38:05;;;;;;;5.88;2.75;;;;;;;10.89;65.24;102100.28;4971314;28;109944;-35
2022/05/05 03:40:30;;;;;;;4.43;2.53;;;;;;;10.88;64.72;102093.09;4971307;28;96741;-35
2022/05/05 03:42:55;;;;;;;5.40;2.72;;;;;;;10.89;64.92;102095.72;4971910;28;96826;-35
2022/05/05 03:45:21;;;;;;;5.68;2.75;;;;;;;10.89;65.03;102097.56;4970803;28;126641;-34
2022/05/05 03:47:46;;;;;;;6.78;2.53;;;;;;;10.85;65.08;102088.69;4970905;28;126517;-35
2022/05/05 03:50:11;;;;;;;5.15;2.72;;;;;;;10.81;65.13;102070.78;4970854;28;120461;-35
2022/05/05 03:52:37;;;;;;;7.70;2.33;;;;;;;10.86;64.87;102087.72;4970746;28;121107;-35
2022/05/05 03:55:02;;;;;;;5.45;2.55;;;;;;;10.83;65.44;102083.31;4971562;28;99356;-34
2022/05/05 03:57:28;;;;;;;4.35;2.15;;;;;;;10.90;65.41;102108.34;4971900;28;99558;-34
2022/05/05 03:59:53;;;;;;;4.60;2.53;;;;;;;10.91;65.31;102106.50;4971461;28;109563;-35
2022/05/05 04:02:18;;;;;;;5.05;2.55;;;;;;;10.90;65.46;102108.34;4972027;28;96827;-34
2022/05/05 04:04:43;;;;;;;4.55;2.13;;;;;;;10.92;65.04;102103.75;4970408;28;118983;-35
2022/05/05 04:07:09;;;;;;;5.85;2.88;;;;;;;10.93;65.36;102104.63;4970837;28;99157;-35
2022/05/05 04:09:34;;;;;;;5.55;2.30;;;;;;;10.89;65.64;102089.44;4970385;28;96590;-35
2022/05/05 04:11:59;;;;;;;5.10;2.65;;;;;;;10.94;65.22;102106.38;4971315;28;96918;-35
2022/05/05 04:14:25;;;;;;;10.60;3.00;;;;;;;10.94;65.36;102107.28;4970850;28;103416;-35
2022/05/05 04:16:51;;;;;;;5.30;1.88;;;;;;;10.89;65.85;102106.56;4972784;28;99251;-35
2022/05/05 04:19:16;;;;;;;4.32;2.25;;;;;;;10.88;65.66;102102.09;4973330;28;96551;-35
2022/05/05 04:21:41;;;;;;;5.30;2.88;;;;;;;10.90;66.29;102099.34;4974953;28;96875;-35
2022/05/05 04:24:07;;;;;;;8.10;2.20;;;;;;;10.91;65.15;102101.97;4974699;28;97867;-35
2022/05/05 04:26:33;;;;;;;5.40;2.60;;;;;;;10.94;65.45;102100.94;4974892;28;97282;-35
2022/05/05 04:28:58;;;;;;;5.57;2.50;;;;;;;10.96;65.35;102102.63;4974136;28;96794;-35
2022/05/05 04:31:28;;;;;;;5.78;2.35;;;;;;;10.94;65.31;102106.38;4974730;28;96849;-35
2022/05/05 04:33:53;;;;;;;6.55;2.65;;;;;;;10.99;65.20;102116.09;4973071;28;101034;-35
2022/05/05 04:36:18;;;;;;;4.45;2.42;;;;;;;11.00;65.43;102109.72;4974355;28;97879;-35
2022/05/05 04:38:44;;;;;;;4.57;2.75;;;;;;;10.99;65.34;102110.66;4974024;28;102880;-35
2022/05/05 04:41:10;;;;;;;6.40;3.47;;;;;;;11.07;65.49;102112.16;4974477;28;102631;-35
2022/05/05 04:43:35;;;;;;;7.00;3.10;;;;;;;11.08;65.08;102111.22;4974209;28;97947;-35
2022/05/05 04:46:01;;;;;;;9.98;2.70;;;;;;;11.05;65.22;102110.38;4974445;28;99111;-35
2022/05/05 04:48:26;;;;;;;5.68;2.20;;;;;;;11.14;64.86;102121.81;4973921;28;102795;-35
2022/05/05 04:50:51;;;;;;;8.10;3.67;;;;;;;11.11;64.91;102111.06;4974113;28;96896;-35
2022/05/05 04:53:17;;;;;;;7.78;2.50;;;;;;;11.12;65.06;102110.13;4973092;28;116131;-35
2022/05/05 04:55:42;;;;;;;5.15;2.67;;;;;;;11.13;65.23;102111.88;4972781;28;127636;-35
2022/05/05 04:58:07;;;;;;;5.97;3.00;;;;;;;11.15;64.92;102115.41;4973942;28;99645;-35
2022/05/05 05:00:33;;;;;;;8.27;3.85;;;;;;;11.18;64.73;102115.31;4973091;28;116385;-35
2022/05/05 05:02:58;;;;;;;5.53;2.70;;;;;;;11.26;65.08;102129.41;4974135;28;97879;-35
2022/05/05 05:05:24;;;;;;;10.23;3.13;;;;;;;11.21;65.33;102120.59;4973110;28;118402;-35
2022/05/05 05:07:49;;;;;;;6.45;3.17;;;;;;;11.27;65.10;102136.56;4972290;28;96709;-35
2022/05/05 05:10:14;;;;;;;9.88;3.05;;;;;;;11.23;64.89;102126.81;4973741;28;105528;-35
2022/05/05 05:12:40;;;;;;;6.50;3.38;;;;;;;11.20;66.66;102122.41;4972864;28;118130;-35
2022/05/05 05:15:07;;;;;;;9.32;3.53;;;;;;;11.32;65.44;102139.09;4967138;28;97281;-34
2022/05/05 05:17:33;;;;;;;9.48;4.20;;;;;;;11.30;66.57;102136.47;4973179;28;96666;-35
2022/05/05 05:19:58;;;;;;;11.25;3.78;;;;;;;11.27;66.16;102136.56;4973333;28;96862;-35
2022/05/05 05:22:23;;;;;;;10.30;4.22;;;;;;;11.26;66.06;102134.81;4973344;28;99673;-35
2022/05/05 05:24:49;;;;;;;9.27;4.20;;;;;;;11.31;66.98;102138.22;4973400;28;99296;-35
2022/05/05 05:27:14;;;;;;;12.50;4.38;;;;;;;11.33;68.18;102147.16;4973325;28;96615;-35
2022/05/05 05:29:39;;;;;;;10.45;4.85;;;;;;;11.32;66.56;102148.13;4972833;28;97938;-35
2022/05/05 05:32:05;;;;;;;12.82;4.28;;;;;;;11.35;67.13;102156.13;4973055;28;109154;-35
2022/05/05 05:34:30;;;;;;;13.20;4.65;;;;;;;11.35;66.52;102156.13;4973349;28;99227;-35
2022/05/05 05:36:56;;;;;;;9.30;4.38;;;;;;;11.41;66.50;102158.53;4973603;28;96640;-35
2022/05/05 05:39:22;;;;;;;8.95;4.22;;;;;;;11.46;66.12;102164.69;4973578;28;96651;-35
2022/05/05 05:41:47;;;;;;;9.02;4.68;;;;;;;11.46;66.96;102161.06;4972740;28;99431;-35
2022/05/05 05:44:12;;;;;;;10.82;4.95;;;;;;;11.51;66.41;102169.88;4972848;28;114811;-35
2022/05/05 05:46:38;;;;;;;9.63;4.25;;;;;;;11.44;66.06;102154.81;4973295;28;96877;-35
2022/05/05 05:49:05;;;;;;;10.52;4.88;;;;;;;11.51;65.95;102166.28;4973319;28;96778;-35
2022/05/05 05:51:31;;;;;;;11.27;5.03;;;;;;;11.59;66.37;102175.00;4971692;28;100985;-35
2022/05/05 05:53:56;;;;;;;11.70;4.75;;;;;;;11.62;66.60;102177.56;4973213;28;97079;-35
2022/05/05 05:56:21;;;;;;;10.63;5.22;;;;;;;11.58;66.58;102170.50;4972346;28;122496;-35
2022/05/05 05:58:46;;;;;;;15.35;6.35;;;;;;;11.64;66.85;102181.97;4973104;28;114369;-35
2022/05/05 06:01:12;;;;;;;13.07;6.18;;;;;;;11.69;66.75;102179.91;4971991;28;126592;-35
2022/05/05 06:03:56;;;;;;;13.57;5.75;;;;;;;11.66;66.66;102176.47;4972293;28;126593;-35
2022/05/05 06:06:25;;;;;;;12.10;5.35;;;;;;;11.72;66.34;102176.19;4972815;28;96627;-34
2022/05/05 06:08:50;;;;;;;16.30;5.85;;;;;;;11.76;66.92;102180.53;4972830;28;96777;-35
2022/05/05 06:11:17;;;;;;;17.20;6.57;;;;;;;11.82;67.22;102199.28;4972769;28;97844;-35
2022/05/05 06:13:43;;;;;;;19.27;7.40;;;;;;;11.84;66.85;102202.78;4970819;28;100707;-34
2022/05/05 06:16:11;;;;;;;14.88;6.53;;;;;;;11.91;67.49;102206.13;4971503;28;96785;-35
2022/05/05 06:18:37;;;;;;;16.42;6.88;;;;;;;11.87;67.44;102196.38;4971587;28;96815;-35
2022/05/05 06:21:03;;;;;;;19.45;6.72;;;;;;;11.94;67.48;102203.31;4972795;28;98052;-35
2022/05/05 06:23:28;;;;;;;14.35;6.47;;;;;;;11.99;68.59;102205.78;4972503;28;116953;-35
2022/05/05 06:25:53;;;;;;;20.92;7.18;;;;;;;12.00;69.56;102213.00;4971867;28;121353;-35
2022/05/05 06:28:18;;;;;;;15.75;7.32;;;;;;;11.93;67.31;102192.50;4972041;28;121603;-35
2022/05/05 06:30:44;;;;;;;17.55;7.38;;;;;;;11.91;67.69;102189.84;4971139;28;118951;-35
2022/05/05 06:33:09;;;;;;;19.55;7.97;;;;;;;12.02;67.58;102216.53;4972332;28;108492;-35
2022/05/05 06:35:36;;;;;;;20.25;7.07;;;;;;;12.05;67.41;102219.09;4972736;28;96498;-35
2022/05/05 06:38:02;;;;;;;13.88;5.70;;;;;;;12.03;67.88;102219.16;4972482;28;96824;-35
2022/05/05 06:40:27;;;;;;;16.73;6.18;;;;;;;12.05;67.41;102214.53;4972038;28;97416;-35
2022/05/05 06:42:52;;;;;;;20.50;6.53;;;;;;;12.15;68.37;102222.25;4972105;28;117997;-35
2022/05/05 06:45:18;;;;;;;17.13;6.68;;;;;;;12.17;67.12;102225.78;4971338;28;121953;-35
2022/05/05 06:47:43;;;;;;;18.13;7.35;;;;;;;12.12;66.28;102220.56;4972951;28;96771;-35
2022/05/05 06:50:09;;;;;;;13.82;6.30;;;;;;;12.12;67.32;102223.28;4972031;28;98848;-34
2022/05/05 06:52:34;;;;;;;16.05;7.15;;;;;;;12.19;67.06;102232.91;4972363;28;97202;-34
2022/05/05 06:55:00;;;;;;;17.88;7.45;;;;;;;12.23;67.74;102225.53;4971694;28;96548;-34
2022/05/05 06:57:26;;;;;;;19.25;8.20;;;;;;;12.20;67.84;102215.66;4972372;28;96820;-34
2022/05/05 06:59:51;;;;;;;14.45;6.72;;;;;;;12.25;66.75;102224.50;4970668;28;100934;-35
2022/05/05 07:02:17;;;;;;;13.35;6.75;;;;;;;12.34;66.42;102236.75;4972199;28;98463;-35
2022/05/05 07:07:26;;;;;;;17.58;6.82;;;;;;;12.45;66.79;102230.81;4972343;28;96844;-35
2022/05/05 07:12:35;;;;;;;13.48;6.78;;;;;;;12.44;66.51;102218.16;4972135;28;97057;-34
2022/05/05 07:15:01;;;;;;;16.13;7.63;;;;;;;12.55;66.40;102237.56;4970320;28;96606;-34
2022/05/05 07:17:26;;;;;;;20.48;8.02;;;;;;;12.50;67.53;102224.19;4971134;28;121404;-34
2022/05/05 07:19:53;;;;;;;21.55;7.63;;;;;;;12.55;67.50;102234.84;4970815;28;127454;-34
2022/05/05 07:22:19;;;;;;;16.77;7.00;;;;;;;12.52;67.93;102226.84;4970516;28;101366;-34
2022/05/05 07:24:46;;;;;;;20.15;8.38;;;;;;;12.53;67.13;102229.47;4970639;28;96676;-35
2022/05/05 07:27:11;;;;;;;16.35;8.10;;;;;;;12.60;67.81;102242.78;4970585;28;96857;-34
2022/05/05 07:29:41;;;;;;;22.05;8.75;;;;;;;12.65;66.97;102241.59;4972118;28;97967;-34
2022/05/05 07:32:07;;;;;;;19.73;6.97;;;;;;;12.68;66.93;102240.56;4971824;28;97830;-34
2022/05/05 07:34:34;;;;;;;16.55;7.60;;;;;;;12.67;67.73;102236.09;4972001;28;96622;-34
2022/05/05 07:37:00;;;;;;;21.38;8.32;;;;;;;12.67;66.76;102226.09;4971056;28;96714;-34
2022/05/05 07:39:25;;;;;;;19.33;8.13;;;;;;;12.71;66.70;102230.44;4971652;28;99584;-34
2022/05/05 07:41:51;;;;;;;21.23;8.48;;;;;;;12.76;66.30;102235.66;4971581;28;99564;-35
2022/05/05 07:44:16;;;;;;;22.05;8.40;;;;;;;12.80;66.70;102233.66;4971524;28;96460;-34
2022/05/05 07:46:42;;;;;;;19.80;8.70;;;;;;;12.85;66.81;102245.22;4971763;28;96532;-34
2022/05/05 07:49:07;;;;;;;19.08;7.28;;;;;;;12.81;69.08;102243.59;4971752;28;97540;-35
2022/05/05 07:51:34;;;;;;;19.10;8.05;;;;;;;12.89;67.19;102253.13;4972792;28;99340;-34
2022/05/05 07:56:44;;;;;;;20.80;8.38;;;;;;;13.04;66.11;102254.25;4975325;28;96513;-34
2022/05/05 07:59:10;;;;;;;18.88;8.13;;;;;;;13.11;67.11;102254.84;4973962;28;126603;-34
2022/05/05 08:01:36;;;;;;;21.83;9.48;;;;;;;13.23;66.40;102261.47;4973773;28;101040;-34
2022/05/05 08:04:10;;;;;;;19.80;8.20;;;;;;;13.23;67.04;102262.38;4975171;28;96514;-35
2022/05/05 08:06:35;;;;;;;20.30;8.55;;;;;;;13.31;66.19;102254.72;4974918;28;96831;-35
2022/05/05 08:09:01;;;;;;;17.75;7.55;;;;;;;13.37;67.60;102269.84;4973855;28;111252;-35
2022/05/05 08:11:28;;;;;;;23.67;9.10;;;;;;;13.34;66.79;102280.91;4974410;28;97261;-34
2022/05/05 08:13:54;;;;;;;19.52;9.30;;;;;;;13.39;66.40;102281.53;4974115;28;96866;-34
2022/05/05 08:16:19;;;;;;;18.67;8.50;;;;;;;13.47;66.36;102281.19;4978198;28;96929;-35
2022/05/05 08:18:45;;;;;;;24.42;10.18;;;;;;;13.56;67.61;102277.97;4973116;28;100852;-35
2022/05/05 08:21:10;;;;;;;21.92;9.15;;;;;;;13.66;66.06;102283.81;4974292;28;99162;-34
2022/05/05 08:23:35;;;;;;;25.08;8.88;;;;;;;13.75;65.48;102281.53;4974848;28;96512;-34
2022/05/05 08:28:45;;;;;;;25.73;10.15;;;;;;;13.94;65.06;102284.19;4974632;28;97032;-34
2022/05/05 08:31:11;;;;;;;17.67;8.57;;;;;;;13.96;65.29;102289.53;4974039;28;111946;-34
2022/05/05 08:33:38;;;;;;;17.88;7.90;;;;;;;13.86;65.09;102280.09;4973901;28;96721;-35
2022/05/05 08:36:05;;;;;;;31.50;10.38;;;;;;;13.91;65.01;102280.72;4972971;28;96914;-34
2022/05/05 08:38:31;;;;;;;20.35;8.65;;;;;;;13.96;66.18;102286.78;4974694;28;97636;-34
2022/05/05 08:40:57;;;;;;;22.02;9.05;;;;;;;13.97;66.99;102299.47;4974495;28;97818;-34
2022/05/05 08:43:22;;;;;;;23.20;9.52;;;;;;;14.04;66.00;102300.91;4972903;28;96561;-34
2022/05/05 08:45:50;;;;;;;20.58;8.82;;;;;;;14.00;65.87;102296.59;4974300;28;96942;-34
2022/05/05 08:48:16;;;;;;;21.38;9.85;;;;;;;14.24;65.65;102299.84;4956338;28;100993;-34
2022/05/05 08:50:46;;;;;;;22.08;9.35;;;;;;;14.39;65.04;102301.72;4973056;28;100902;-34
2022/05/05 08:53:15;;;;;;;21.08;9.00;;;;;;;14.45;64.60;102293.22;4972984;28;96663;-34
2022/05/05 08:55:43;;;;;;;21.65;9.48;;;;;;;14.52;64.99;102292.91;4956558;28;96855;-34
2022/05/05 08:58:09;;;;;;;19.30;9.18;;;;;;;14.63;64.56;102301.38;4955883;28;100827;-34
2022/05/05 09:00:34;;;;;;;28.40;10.35;;;;;;;14.60;65.55;102312.47;4974061;28;97322;-34
2022/05/05 09:03:00;;;;;;;25.55;10.13;;;;;;;14.72;64.58;102316.38;4973755;28;96696;-34
2022/05/05 09:05:43;;;;;;;23.15;9.20;;;;;;;14.74;65.85;102318.03;4973870;28;96854;-34
2022/05/05 09:08:38;;;;;;;20.67;8.82;;;;;;;14.78;66.01;102319.63;4973483;28;113334;-34
2022/05/05 09:11:05;;;;;;;24.35;9.98;;;;;;;14.72;65.23;102309.06;4976454;28;120921;-34
2022/05/05 09:13:36;;;;;;;19.00;9.05;;;;;;;14.81;64.90;102316.72;4972288;28;96921;-34
2022/05/05 09:16:03;;;;;;;24.45;9.18;;;;;;;14.82;64.95;102323.06;4974394;28;96567;-35
2022/05/05 09:18:31;;;;;;;16.00;7.40;;;;;;;14.79;65.22;102318.66;4973543;28;99224;-34
2022/05/05 09:21:04;;;;;;;18.17;8.88;;;;;;;14.95;64.77;102328.72;4973928;28;97325;-34
2022/05/05 09:23:37;;;;;;;23.85;10.05;;;;;;;15.08;64.53;102324.31;4973151;28;96523;-34
2022/05/05 09:26:05;;;;;;;23.55;9.82;;;;;;;15.07;64.75;102319.84;4973854;28;96792;-34
2022/05/05 09:28:32;;;;;;;21.73;9.93;;;;;;;15.08;64.65;102322.47;4972101;28;100697;-34
2022/05/05 09:31:10;;;;;;;24.80;10.02;;;;;;;15.16;63.87;102330.25;4973200;28;99361;-34
2022/05/05 09:33:38;;;;;;;20.83;9.50;;;;;;;15.28;63.72;102326.81;4973643;28;96651;-34
2022/05/05 09:36:05;;;;;;;23.55;9.70;;;;;;;15.32;63.97;102324.75;4991560;28;96591;-34
2022/05/05 09:38:52;;;;;;;25.40;10.00;;;;;;;15.38;63.73;102332.59;4993383;28;97347;-34
2022/05/05 09:41:22;;;;;;;21.08;9.52;;;;;;;15.38;64.32;102331.72;4993886;28;97910;-34
2022/05/05 09:43:53;;;;;;;23.08;9.15;;;;;;;15.40;64.30;102329.78;4992077;28;96676;-34
2022/05/05 09:46:21;;;;;;;19.15;8.55;;;;;;;15.47;64.00;102337.53;4991941;28;96745;-34
2022/05/05 09:48:53;;;;;;;23.08;9.32;;;;;;;15.54;63.74;102338.06;4992766;28;97418;-34
2022/05/05 09:51:22;;;;;;;19.63;8.20;;;;;;;15.49;63.40;102330.13;4991514;28;100799;-34
2022/05/05 09:59:30;;;;;;;25.10;9.68;;;;;;;15.76;63.35;102332.22;4993339;28;97037;-34
2022/05/05 10:02:01;;;;;;;19.92;9.82;;;;;;;15.90;62.68;102331.41;4993123;28;97840;-34
2022/05/05 10:04:30;;;;;;;23.95;9.88;;;;;;;16.07;62.69;102336.72;4991801;28;96677;-34
2022/05/05 10:06:56;;;;;;;27.52;10.30;;;;;;;16.18;62.28;102337.91;4991697;28;96906;-35
2022/05/05 10:09:23;;;;;;;22.50;10.40;;;;;;;16.27;62.41;102345.56;4991364;28;100773;-35
2022/05/05 10:11:49;;;;;;;21.63;9.20;;;;;;;16.29;62.01;102351.81;4992143;28;99103;-34
2022/05/05 10:14:16;;;;;;;24.02;10.00;;;;;;;16.37;62.65;102351.34;4989766;28;97318;-34
2022/05/05 10:16:42;;;;;;;32.67;11.10;;;;;;;16.44;62.22;102348.13;4992642;28;96799;-34
2022/05/05 10:19:08;;;;;;;23.35;9.65;;;;;;;16.49;61.79;102337.78;4974699;28;101369;-34
2022/05/05 10:21:59;;;;;;;19.42;10.27;;;;;;;16.40;61.78;102353.88;4991179;28;101150;-34
2022/05/05 10:24:30;;;;;;;23.90;9.38;;;;;;;16.44;61.78;102337.19;4991311;28;96627;-34
2022/05/05 10:26:58;;;;;;;25.52;9.80;;;;;;;16.60;61.47;102348.03;4991223;28;96821;-34
2022/05/05 10:29:32;;;;;;;22.05;10.68;;;;;;;16.64;61.46;102349.63;4991027;28;101069;-34
2022/05/05 10:32:18;;;;;;;18.67;8.70;;;;;;;16.70;62.04;102357.41;4992629;28;99504;-34
2022/05/05 10:34:45;;;;;;;21.52;9.43;;;;;;;16.82;61.37;102343.97;4991326;28;96571;-34
2022/05/05 10:37:20;;;;;;;19.83;9.68;;;;;;;16.89;61.25;102348.06;4991079;28;96939;-34
2022/05/05 10:39:50;;;;;;;23.58;9.70;;;;;;;17.01;60.64;102355.50;4991804;28;99434;-34
2022/05/05 10:42:21;;;;;;;23.77;9.82;;;;;;;17.09;60.82;102352.25;4990880;28;100798;-34
2022/05/05 10:45:12;;;;;;;17.58;8.25;;;;;;;17.11;60.22;102353.94;4974428;28;96645;-34
2022/05/05 10:47:50;;;;;;;18.00;8.77;;;;;;;17.21;60.47;102354.22;4991127;28;96749;-34
2022/05/05 10:50:31;;;;;;;17.85;8.48;;;;;;;17.31;60.64;102347.16;4992026;28;99498;-35
2022/05/05 10:52:58;;;;;;;15.43;8.25;;;;;;;17.47;60.22;102360.72;4990827;28;100713;-34
2022/05/05 10:55:28;;;;;;;14.40;7.40;;;;;;;17.47;58.91;102357.06;4990560;28;96784;-35
2022/05/05 10:57:54;;;;;;;13.10;6.22;;;;;;;17.22;59.54;102341.41;4992972;28;96529;-34
2022/05/05 11:00:19;;;;;;;14.90;7.22;;;;;;;17.38;59.49;102358.56;4986673;28;97828;-35
2022/05/05 11:03:03;;;;;;;15.30;6.78;;;;;;;17.45;59.70;102359.03;4972791;28;99092;-35
2022/05/05 11:05:36;;;;;;;11.70;6.10;;;;;;;17.59;59.64;102346.19;4990342;28;97608;-35
2022/05/05 11:08:14;;;;;;;13.15;6.40;;;;;;;17.79;59.28;102364.00;4990438;28;96947;-35
2022/05/05 11:13:46;;;;;;;12.73;6.68;;;;;;;17.69;58.51;102362.88;4992257;28;96928;-35
2022/05/05 11:22:19;;;;;;;9.07;3.95;;;;;;;17.32;58.56;102359.84;4971465;28;96981;-34
2022/05/05 11:24:47;;;;;;;7.75;4.07;;;;;;;17.43;55.10;102342.72;4970982;28;100671;-34
2022/05/05 11:27:15;;;;;;;6.63;3.83;;;;;;;17.35;55.04;102358.75;4974212;28;96611;-35
2022/05/05 11:29:45;;;;;;;7.13;3.58;;;;;;;17.48;56.32;102350.63;4974243;28;96620;-35
2022/05/05 11:32:11;;;;;;;7.32;3.38;;;;;;;17.60;56.02;102347.94;4985287;28;100862;-35
2022/05/05 11:34:39;;;;;;;11.50;4.45;;;;;;;17.57;55.70;102356.38;4994265;28;126313;-34
2022/05/05 11:37:06;;;;;;;8.60;3.75;;;;;;;17.64;55.60;102362.31;4993594;28;97795;-34
2022/05/05 11:39:33;;;;;;;11.30;5.13;;;;;;;17.55;56.70;102354.72;4993996;28;96828;-35
2022/05/05 11:42:04;;;;;;;13.60;5.28;;;;;;;17.50;56.43;102355.00;4994977;28;98966;-35
2022/05/05 11:44:29;;;;;;;15.60;4.57;;;;;;;17.47;55.36;102354.31;4993881;28;101109;-35
2022/05/05 11:46:57;;;;;;;8.70;4.53;;;;;;;17.59;56.44;102370.84;4995067;28;96602;-35
2022/05/05 11:49:24;;;;;;;7.95;4.13;;;;;;;17.64;55.93;102359.59;4994163;28;96913;-35
2022/05/05 11:51:50;;;;;;;8.25;4.53;;;;;;;17.71;55.66;102351.78;4993433;28;101284;-35
2022/05/05 11:54:25;;;;;;;9.02;4.25;;;;;;;17.72;56.10;102359.94;4993531;28;100775;-35
2022/05/05 11:56:53;;;;;;;10.73;4.65;;;;;;;17.87;56.77;102355.28;4971129;28;97065;-35